sensor_id;sensor_type;location;lat;lon;timestamp;P1;durP1;ratioP1;P2;durP2;ratioP2
50773;SDS011;36745;48.544;8.918;2023-07-28T00:02:49;7.47;;;4.63;;
50773;SDS011;36745;48.544;8.918;2023-07-28T00:06:09;7.30;;;4.70;;
50773;SDS011;36745;48.544;8.918;2023-07-28T00:09:29;8.35;;;4.50;;
50773;SDS011;36745;48.544;8.918;2023-07-28T00:12:49;9.13;;;4.60;;
50773;SDS011;36745;48.544;8.918;2023-07-28T00:16:09;8.52;;;4.60;;
50773;SDS011;36745;48.544;8.918;2023-07-28T00:19:29;6.97;;;4.20;;
50773;SDS011;36745;48.544;8.918;2023-07-28T00:22:49;9.10;;;4.60;;
50773;SDS011;36745;48.544;8.918;2023-07-28T00:26:09;6.38;;;4.53;;
50773;SDS011;36745;48.544;8.918;2023-07-28T00:29:28;6.18;;;4.57;;
50773;SDS011;36745;48.544;8.918;2023-07-28T00:32:48;6.47;;;4.70;;
50773;SDS011;36745;48.544;8.918;2023-07-28T00:36:08;9.25;;;4.57;;
50773;SDS011;36745;48.544;8.918;2023-07-28T00:39:28;9.27;;;4.78;;
50773;SDS011;36745;48.544;8.918;2023-07-28T00:42:47;5.22;;;4.35;;
50773;SDS011;36745;48.544;8.918;2023-07-28T00:46:08;9.02;;;4.97;;
50773;SDS011;36745;48.544;8.918;2023-07-28T00:49:29;10.20;;;4.72;;
50773;SDS011;36745;48.544;8.918;2023-07-28T00:52:49;4.75;;;4.18;;
50773;SDS011;36745;48.544;8.918;2023-07-28T00:56:10;5.20;;;4.70;;
50773;SDS011;36745;48.544;8.918;2023-07-28T00:59:30;8.32;;;4.65;;
50773;SDS011;36745;48.544;8.918;2023-07-28T01:02:50;9.45;;;4.47;;
50773;SDS011;36745;48.544;8.918;2023-07-28T01:06:14;8.05;;;4.80;;
50773;SDS011;36745;48.544;8.918;2023-07-28T01:10:03;10.20;;;4.40;;
50773;SDS011;36745;48.544;8.918;2023-07-28T01:13:27;8.35;;;4.55;;
50773;SDS011;36745;48.544;8.918;2023-07-28T01:16:47;5.07;;;4.57;;
50773;SDS011;36745;48.544;8.918;2023-07-28T01:20:07;6.60;;;4.43;;
50773;SDS011;36745;48.544;8.918;2023-07-28T01:23:37;8.73;;;4.10;;
50773;SDS011;36745;48.544;8.918;2023-07-28T01:27:09;9.82;;;6.95;;
50773;SDS011;36745;48.544;8.918;2023-07-28T01:30:29;24.77;;;12.40;;
50773;SDS011;36745;48.544;8.918;2023-07-28T01:33:49;9.75;;;6.15;;
50773;SDS011;36745;48.544;8.918;2023-07-28T01:37:09;11.82;;;6.78;;
50773;SDS011;36745;48.544;8.918;2023-07-28T01:40:29;12.15;;;7.03;;
50773;SDS011;36745;48.544;8.918;2023-07-28T01:43:49;11.27;;;5.30;;
50773;SDS011;36745;48.544;8.918;2023-07-28T01:47:08;9.40;;;5.55;;
50773;SDS011;36745;48.544;8.918;2023-07-28T01:50:28;8.70;;;5.55;;
50773;SDS011;36745;48.544;8.918;2023-07-28T01:53:48;8.98;;;4.85;;
50773;SDS011;36745;48.544;8.918;2023-07-28T01:57:08;8.00;;;4.72;;
50773;SDS011;36745;48.544;8.918;2023-07-28T02:00:28;6.32;;;5.28;;
50773;SDS011;36745;48.544;8.918;2023-07-28T02:03:47;8.50;;;4.82;;
50773;SDS011;36745;48.544;8.918;2023-07-28T02:07:07;7.57;;;4.07;;
50773;SDS011;36745;48.544;8.918;2023-07-28T02:10:28;7.15;;;4.85;;
50773;SDS011;36745;48.544;8.918;2023-07-28T02:13:48;9.98;;;4.97;;
50773;SDS011;36745;48.544;8.918;2023-07-28T02:17:07;7.72;;;4.43;;
50773;SDS011;36745;48.544;8.918;2023-07-28T02:20:27;8.23;;;4.93;;
50773;SDS011;36745;48.544;8.918;2023-07-28T02:23:48;7.32;;;5.10;;
50773;SDS011;36745;48.544;8.918;2023-07-28T02:27:08;13.95;;;5.20;;
50773;SDS011;36745;48.544;8.918;2023-07-28T02:30:27;7.68;;;4.75;;
50773;SDS011;36745;48.544;8.918;2023-07-28T02:33:47;5.15;;;4.25;;
50773;SDS011;36745;48.544;8.918;2023-07-28T02:37:07;7.68;;;4.68;;
50773;SDS011;36745;48.544;8.918;2023-07-28T02:40:27;6.22;;;5.10;;
50773;SDS011;36745;48.544;8.918;2023-07-28T02:43:47;8.45;;;4.90;;
50773;SDS011;36745;48.544;8.918;2023-07-28T02:47:06;8.52;;;5.50;;
50773;SDS011;36745;48.544;8.918;2023-07-28T02:54:11;7.78;;;4.68;;
50773;SDS011;36745;48.544;8.918;2023-07-28T02:57:31;7.65;;;5.22;;
50773;SDS011;36745;48.544;8.918;2023-07-28T03:00:51;8.20;;;4.88;;
50773;SDS011;36745;48.544;8.918;2023-07-28T03:04:11;4.80;;;4.32;;
50773;SDS011;36745;48.544;8.918;2023-07-28T03:07:31;6.25;;;4.88;;
50773;SDS011;36745;48.544;8.918;2023-07-28T03:10:55;6.40;;;4.20;;
50773;SDS011;36745;48.544;8.918;2023-07-28T03:14:15;5.93;;;4.35;;
50773;SDS011;36745;48.544;8.918;2023-07-28T03:17:36;7.45;;;5.07;;
50773;SDS011;36745;48.544;8.918;2023-07-28T03:20:56;9.85;;;5.05;;
50773;SDS011;36745;48.544;8.918;2023-07-28T03:24:16;6.53;;;4.68;;
50773;SDS011;36745;48.544;8.918;2023-07-28T03:27:36;6.50;;;4.55;;
50773;SDS011;36745;48.544;8.918;2023-07-28T03:30:55;8.38;;;5.00;;
50773;SDS011;36745;48.544;8.918;2023-07-28T03:34:15;5.85;;;4.55;;
50773;SDS011;36745;48.544;8.918;2023-07-28T03:37:35;7.13;;;4.90;;
50773;SDS011;36745;48.544;8.918;2023-07-28T03:40:55;7.25;;;4.70;;
50773;SDS011;36745;48.544;8.918;2023-07-28T03:44:14;7.75;;;4.70;;
50773;SDS011;36745;48.544;8.918;2023-07-28T03:47:35;8.95;;;4.65;;
50773;SDS011;36745;48.544;8.918;2023-07-28T03:50:56;7.93;;;4.90;;
50773;SDS011;36745;48.544;8.918;2023-07-28T03:54:15;7.22;;;4.93;;
50773;SDS011;36745;48.544;8.918;2023-07-28T03:57:35;6.93;;;4.72;;
50773;SDS011;36745;48.544;8.918;2023-07-28T04:00:55;8.10;;;5.38;;
50773;SDS011;36745;48.544;8.918;2023-07-28T04:04:15;7.00;;;4.97;;
50773;SDS011;36745;48.544;8.918;2023-07-28T04:07:34;7.70;;;5.15;;
50773;SDS011;36745;48.544;8.918;2023-07-28T04:10:54;7.88;;;4.70;;
50773;SDS011;36745;48.544;8.918;2023-07-28T04:14:14;7.15;;;4.95;;
50773;SDS011;36745;48.544;8.918;2023-07-28T04:17:34;9.75;;;5.28;;
50773;SDS011;36745;48.544;8.918;2023-07-28T04:20:54;5.88;;;4.95;;
50773;SDS011;36745;48.544;8.918;2023-07-28T04:24:13;6.28;;;5.30;;
50773;SDS011;36745;48.544;8.918;2023-07-28T04:27:33;14.45;;;5.40;;
50773;SDS011;36745;48.544;8.918;2023-07-28T04:30:53;8.43;;;5.22;;
50773;SDS011;36745;48.544;8.918;2023-07-28T04:34:13;10.23;;;5.55;;
50773;SDS011;36745;48.544;8.918;2023-07-28T04:37:32;6.10;;;4.80;;
50773;SDS011;36745;48.544;8.918;2023-07-28T04:40:52;10.27;;;5.25;;
50773;SDS011;36745;48.544;8.918;2023-07-28T04:44:13;7.95;;;5.15;;
50773;SDS011;36745;48.544;8.918;2023-07-28T04:47:32;8.70;;;5.40;;
50773;SDS011;36745;48.544;8.918;2023-07-28T04:50:52;8.13;;;5.30;;
50773;SDS011;36745;48.544;8.918;2023-07-28T04:54:12;12.25;;;5.35;;
50773;SDS011;36745;48.544;8.918;2023-07-28T04:57:32;11.30;;;5.28;;
50773;SDS011;36745;48.544;8.918;2023-07-28T05:00:52;14.27;;;5.95;;
50773;SDS011;36745;48.544;8.918;2023-07-28T05:04:12;8.88;;;5.47;;
50773;SDS011;36745;48.544;8.918;2023-07-28T05:07:31;8.32;;;5.00;;
50773;SDS011;36745;48.544;8.918;2023-07-28T05:10:51;9.23;;;6.18;;
50773;SDS011;36745;48.544;8.918;2023-07-28T05:14:11;9.25;;;6.00;;
50773;SDS011;36745;48.544;8.918;2023-07-28T05:17:31;8.13;;;5.30;;
50773;SDS011;36745;48.544;8.918;2023-07-28T05:20:51;10.30;;;5.47;;
50773;SDS011;36745;48.544;8.918;2023-07-28T05:24:11;10.00;;;5.35;;
50773;SDS011;36745;48.544;8.918;2023-07-28T05:27:31;5.75;;;4.80;;
50773;SDS011;36745;48.544;8.918;2023-07-28T05:30:51;8.07;;;6.07;;
50773;SDS011;36745;48.544;8.918;2023-07-28T05:34:10;10.65;;;6.88;;
50773;SDS011;36745;48.544;8.918;2023-07-28T05:37:32;12.93;;;6.90;;
50773;SDS011;36745;48.544;8.918;2023-07-28T05:41:01;14.55;;;8.10;;
50773;SDS011;36745;48.544;8.918;2023-07-28T05:44:22;11.75;;;6.43;;
50773;SDS011;36745;48.544;8.918;2023-07-28T05:47:42;11.60;;;7.18;;
50773;SDS011;36745;48.544;8.918;2023-07-28T05:51:02;12.02;;;6.78;;
50773;SDS011;36745;48.544;8.918;2023-07-28T05:54:21;10.38;;;7.85;;
50773;SDS011;36745;48.544;8.918;2023-07-28T05:57:41;9.75;;;6.18;;
50773;SDS011;36745;48.544;8.918;2023-07-28T06:01:02;11.32;;;6.88;;
50773;SDS011;36745;48.544;8.918;2023-07-28T06:04:21;9.50;;;7.13;;
50773;SDS011;36745;48.544;8.918;2023-07-28T06:07:41;9.73;;;6.78;;
50773;SDS011;36745;48.544;8.918;2023-07-28T06:11:05;13.43;;;7.07;;
50773;SDS011;36745;48.544;8.918;2023-07-28T06:14:25;11.40;;;7.57;;
50773;SDS011;36745;48.544;8.918;2023-07-28T06:17:45;9.80;;;6.80;;
50773;SDS011;36745;48.544;8.918;2023-07-28T06:21:05;10.32;;;7.00;;
50773;SDS011;36745;48.544;8.918;2023-07-28T06:24:24;9.73;;;7.32;;
50773;SDS011;36745;48.544;8.918;2023-07-28T06:27:44;7.88;;;6.68;;
50773;SDS011;36745;48.544;8.918;2023-07-28T06:31:04;14.55;;;7.32;;
50773;SDS011;36745;48.544;8.918;2023-07-28T06:34:24;10.65;;;7.30;;
50773;SDS011;36745;48.544;8.918;2023-07-28T06:37:43;8.80;;;7.50;;
50773;SDS011;36745;48.544;8.918;2023-07-28T06:41:03;9.32;;;7.40;;
50773;SDS011;36745;48.544;8.918;2023-07-28T06:44:24;8.13;;;7.00;;
50773;SDS011;36745;48.544;8.918;2023-07-28T06:47:44;9.18;;;6.85;;
50773;SDS011;36745;48.544;8.918;2023-07-28T06:51:03;10.27;;;7.70;;
50773;SDS011;36745;48.544;8.918;2023-07-28T06:54:26;12.80;;;11.13;;
50773;SDS011;36745;48.544;8.918;2023-07-28T06:57:49;8.90;;;7.85;;
50773;SDS011;36745;48.544;8.918;2023-07-28T07:01:09;14.50;;;10.57;;
50773;SDS011;36745;48.544;8.918;2023-07-28T07:04:29;10.10;;;7.50;;
50773;SDS011;36745;48.544;8.918;2023-07-28T07:07:49;12.30;;;6.93;;
50773;SDS011;36745;48.544;8.918;2023-07-28T07:11:09;7.13;;;6.00;;
50773;SDS011;36745;48.544;8.918;2023-07-28T07:14:29;8.05;;;5.78;;
50773;SDS011;36745;48.544;8.918;2023-07-28T07:17:49;10.07;;;6.07;;
50773;SDS011;36745;48.544;8.918;2023-07-28T07:21:09;7.80;;;6.43;;
50773;SDS011;36745;48.544;8.918;2023-07-28T07:24:29;7.80;;;5.93;;
50773;SDS011;36745;48.544;8.918;2023-07-28T07:27:48;8.43;;;5.88;;
50773;SDS011;36745;48.544;8.918;2023-07-28T07:31:12;12.73;;;6.47;;
50773;SDS011;36745;48.544;8.918;2023-07-28T07:34:33;8.45;;;5.65;;
50773;SDS011;36745;48.544;8.918;2023-07-28T07:37:53;7.95;;;5.60;;
50773;SDS011;36745;48.544;8.918;2023-07-28T07:41:13;7.88;;;5.18;;
50773;SDS011;36745;48.544;8.918;2023-07-28T07:44:40;5.28;;;4.78;;
50773;SDS011;36745;48.544;8.918;2023-07-28T07:48:00;7.25;;;5.00;;
50773;SDS011;36745;48.544;8.918;2023-07-28T07:51:20;8.65;;;5.70;;
50773;SDS011;36745;48.544;8.918;2023-07-28T07:54:40;9.05;;;5.78;;
50773;SDS011;36745;48.544;8.918;2023-07-28T07:57:59;8.57;;;6.50;;
50773;SDS011;36745;48.544;8.918;2023-07-28T08:01:19;6.93;;;5.32;;
50773;SDS011;36745;48.544;8.918;2023-07-28T08:04:39;5.95;;;4.50;;
50773;SDS011;36745;48.544;8.918;2023-07-28T08:07:59;5.95;;;4.75;;
50773;SDS011;36745;48.544;8.918;2023-07-28T08:11:19;6.20;;;4.90;;
50773;SDS011;36745;48.544;8.918;2023-07-28T08:14:38;8.40;;;4.45;;
50773;SDS011;36745;48.544;8.918;2023-07-28T08:17:58;4.35;;;3.15;;
50773;SDS011;36745;48.544;8.918;2023-07-28T08:21:18;4.70;;;3.20;;
50773;SDS011;36745;48.544;8.918;2023-07-28T08:24:38;6.15;;;3.40;;
50773;SDS011;36745;48.544;8.918;2023-07-28T08:27:58;3.15;;;2.83;;
50773;SDS011;36745;48.544;8.918;2023-07-28T08:31:18;3.70;;;2.85;;
50773;SDS011;36745;48.544;8.918;2023-07-28T08:34:38;4.72;;;3.20;;
50773;SDS011;36745;48.544;8.918;2023-07-28T08:37:57;3.72;;;2.92;;
50773;SDS011;36745;48.544;8.918;2023-07-28T08:41:17;9.15;;;3.92;;
50773;SDS011;36745;48.544;8.918;2023-07-28T08:44:37;8.35;;;3.15;;
50773;SDS011;36745;48.544;8.918;2023-07-28T08:47:57;3.53;;;2.65;;
50773;SDS011;36745;48.544;8.918;2023-07-28T08:51:17;3.60;;;2.80;;
50773;SDS011;36745;48.544;8.918;2023-07-28T08:54:37;4.93;;;3.22;;
50773;SDS011;36745;48.544;8.918;2023-07-28T08:57:56;4.00;;;2.95;;
50773;SDS011;36745;48.544;8.918;2023-07-28T09:01:34;6.97;;;2.88;;
50773;SDS011;36745;48.544;8.918;2023-07-28T09:04:58;3.78;;;2.75;;
50773;SDS011;36745;48.544;8.918;2023-07-28T09:08:23;4.03;;;3.35;;
50773;SDS011;36745;48.544;8.918;2023-07-28T09:11:47;3.10;;;2.65;;
50773;SDS011;36745;48.544;8.918;2023-07-28T09:15:09;3.35;;;2.80;;
50773;SDS011;36745;48.544;8.918;2023-07-28T09:18:28;5.82;;;3.03;;
50773;SDS011;36745;48.544;8.918;2023-07-28T09:21:59;4.57;;;2.70;;
50773;SDS011;36745;48.544;8.918;2023-07-28T09:25:20;4.40;;;2.67;;
50773;SDS011;36745;48.544;8.918;2023-07-28T09:28:40;3.50;;;2.40;;
50773;SDS011;36745;48.544;8.918;2023-07-28T09:32:04;3.20;;;2.90;;
50773;SDS011;36745;48.544;8.918;2023-07-28T09:35:25;3.50;;;2.90;;
50773;SDS011;36745;48.544;8.918;2023-07-28T09:38:45;7.82;;;3.03;;
50773;SDS011;36745;48.544;8.918;2023-07-28T09:42:07;4.07;;;2.80;;
50773;SDS011;36745;48.544;8.918;2023-07-28T09:45:29;7.20;;;2.45;;
50773;SDS011;36745;48.544;8.918;2023-07-28T09:48:51;3.15;;;2.85;;
50773;SDS011;36745;48.544;8.918;2023-07-28T09:52:15;7.72;;;3.28;;
50773;SDS011;36745;48.544;8.918;2023-07-28T09:55:38;3.47;;;2.60;;
50773;SDS011;36745;48.544;8.918;2023-07-28T09:59:01;2.60;;;2.40;;
50773;SDS011;36745;48.544;8.918;2023-07-28T10:02:29;3.33;;;3.00;;
50773;SDS011;36745;48.544;8.918;2023-07-28T10:05:49;5.03;;;2.88;;
50773;SDS011;36745;48.544;8.918;2023-07-28T10:09:09;4.93;;;2.78;;
50773;SDS011;36745;48.544;8.918;2023-07-28T10:12:31;4.10;;;2.85;;
50773;SDS011;36745;48.544;8.918;2023-07-28T10:16:01;3.50;;;2.70;;
50773;SDS011;36745;48.544;8.918;2023-07-28T10:19:21;5.43;;;2.95;;
50773;SDS011;36745;48.544;8.918;2023-07-28T10:22:44;3.13;;;2.83;;
50773;SDS011;36745;48.544;8.918;2023-07-28T10:26:04;3.13;;;2.80;;
50773;SDS011;36745;48.544;8.918;2023-07-28T10:29:25;5.45;;;2.90;;
50773;SDS011;36745;48.544;8.918;2023-07-28T10:32:45;3.30;;;2.80;;
50773;SDS011;36745;48.544;8.918;2023-07-28T10:36:18;3.10;;;2.70;;
50773;SDS011;36745;48.544;8.918;2023-07-28T10:39:37;4.03;;;2.63;;
50773;SDS011;36745;48.544;8.918;2023-07-28T10:42:57;3.22;;;2.90;;
50773;SDS011;36745;48.544;8.918;2023-07-28T10:46:20;3.00;;;2.70;;
50773;SDS011;36745;48.544;8.918;2023-07-28T10:49:40;4.88;;;2.85;;
50773;SDS011;36745;48.544;8.918;2023-07-28T10:53:00;8.57;;;3.00;;
50773;SDS011;36745;48.544;8.918;2023-07-28T10:56:20;3.97;;;2.60;;
50773;SDS011;36745;48.544;8.918;2023-07-28T10:59:41;5.00;;;2.80;;
50773;SDS011;36745;48.544;8.918;2023-07-28T11:03:00;4.38;;;2.30;;
50773;SDS011;36745;48.544;8.918;2023-07-28T11:06:20;2.95;;;2.65;;
50773;SDS011;36745;48.544;8.918;2023-07-28T11:09:40;3.20;;;2.63;;
50773;SDS011;36745;48.544;8.918;2023-07-28T11:13:03;7.82;;;3.13;;
50773;SDS011;36745;48.544;8.918;2023-07-28T11:16:25;4.90;;;2.78;;
50773;SDS011;36745;48.544;8.918;2023-07-28T11:19:45;4.95;;;3.35;;
50773;SDS011;36745;48.544;8.918;2023-07-28T11:23:05;4.53;;;3.00;;
50773;SDS011;36745;48.544;8.918;2023-07-28T11:26:25;5.78;;;3.13;;
50773;SDS011;36745;48.544;8.918;2023-07-28T11:29:47;5.85;;;3.45;;
50773;SDS011;36745;48.544;8.918;2023-07-28T11:33:08;3.85;;;3.35;;
50773;SDS011;36745;48.544;8.918;2023-07-28T11:36:31;3.97;;;3.50;;
50773;SDS011;36745;48.544;8.918;2023-07-28T11:39:50;4.10;;;3.60;;
50773;SDS011;36745;48.544;8.918;2023-07-28T11:43:10;9.13;;;3.50;;
50773;SDS011;36745;48.544;8.918;2023-07-28T11:46:31;3.85;;;3.38;;
50773;SDS011;36745;48.544;8.918;2023-07-28T11:49:55;5.80;;;3.33;;
50773;SDS011;36745;48.544;8.918;2023-07-28T11:53:17;6.25;;;3.92;;
50773;SDS011;36745;48.544;8.918;2023-07-28T11:56:37;3.92;;;3.30;;
50773;SDS011;36745;48.544;8.918;2023-07-28T11:59:57;8.23;;;4.25;;
50773;SDS011;36745;48.544;8.918;2023-07-28T12:03:17;5.43;;;3.60;;
50773;SDS011;36745;48.544;8.918;2023-07-28T12:06:59;6.38;;;3.25;;
50773;SDS011;36745;48.544;8.918;2023-07-28T12:10:32;4.28;;;3.53;;
50773;SDS011;36745;48.544;8.918;2023-07-28T12:13:52;4.32;;;3.88;;
50773;SDS011;36745;48.544;8.918;2023-07-28T12:17:19;3.70;;;3.40;;
50773;SDS011;36745;48.544;8.918;2023-07-28T12:20:44;3.75;;;3.22;;
50773;SDS011;36745;48.544;8.918;2023-07-28T12:24:09;4.03;;;3.40;;
50773;SDS011;36745;48.544;8.918;2023-07-28T12:27:29;4.05;;;3.50;;
50773;SDS011;36745;48.544;8.918;2023-07-28T12:30:48;4.57;;;3.60;;
50773;SDS011;36745;48.544;8.918;2023-07-28T12:34:10;3.95;;;3.65;;
50773;SDS011;36745;48.544;8.918;2023-07-28T12:37:30;4.45;;;3.90;;
50773;SDS011;36745;48.544;8.918;2023-07-28T12:40:50;5.50;;;3.75;;
50773;SDS011;36745;48.544;8.918;2023-07-28T12:44:10;5.13;;;3.63;;
50773;SDS011;36745;48.544;8.918;2023-07-28T12:47:30;5.28;;;3.95;;
50773;SDS011;36745;48.544;8.918;2023-07-28T12:50:49;7.07;;;3.47;;
50773;SDS011;36745;48.544;8.918;2023-07-28T12:54:09;5.03;;;4.05;;
50773;SDS011;36745;48.544;8.918;2023-07-28T12:57:29;5.18;;;3.78;;
50773;SDS011;36745;48.544;8.918;2023-07-28T13:00:49;5.95;;;4.13;;
50773;SDS011;36745;48.544;8.918;2023-07-28T13:04:09;4.85;;;3.75;;
50773;SDS011;36745;48.544;8.918;2023-07-28T13:07:29;5.40;;;4.10;;
50773;SDS011;36745;48.544;8.918;2023-07-28T13:10:49;5.28;;;3.72;;
50773;SDS011;36745;48.544;8.918;2023-07-28T13:14:09;4.65;;;3.70;;
50773;SDS011;36745;48.544;8.918;2023-07-28T13:17:28;3.70;;;3.40;;
50773;SDS011;36745;48.544;8.918;2023-07-28T13:20:48;5.47;;;3.80;;
50773;SDS011;36745;48.544;8.918;2023-07-28T13:24:08;7.22;;;3.90;;
50773;SDS011;36745;48.544;8.918;2023-07-28T13:27:28;8.05;;;3.58;;
50773;SDS011;36745;48.544;8.918;2023-07-28T13:30:48;7.05;;;3.95;;
50773;SDS011;36745;48.544;8.918;2023-07-28T13:34:08;4.80;;;4.15;;
50773;SDS011;36745;48.544;8.918;2023-07-28T13:37:28;4.53;;;3.08;;
50773;SDS011;36745;48.544;8.918;2023-07-28T13:40:48;4.18;;;2.83;;
50773;SDS011;36745;48.544;8.918;2023-07-28T13:44:07;4.40;;;3.20;;
50773;SDS011;36745;48.544;8.918;2023-07-28T13:47:27;4.13;;;3.40;;
50773;SDS011;36745;48.544;8.918;2023-07-28T13:50:47;4.45;;;3.35;;
50773;SDS011;36745;48.544;8.918;2023-07-28T13:54:07;5.03;;;3.42;;
50773;SDS011;36745;48.544;8.918;2023-07-28T13:57:26;4.85;;;3.55;;
50773;SDS011;36745;48.544;8.918;2023-07-28T14:00:46;6.72;;;3.40;;
50773;SDS011;36745;48.544;8.918;2023-07-28T14:04:06;4.70;;;3.60;;
50773;SDS011;36745;48.544;8.918;2023-07-28T14:07:25;6.70;;;3.22;;
50773;SDS011;36745;48.544;8.918;2023-07-28T14:10:45;4.72;;;3.92;;
50773;SDS011;36745;48.544;8.918;2023-07-28T14:14:05;5.72;;;3.75;;
50773;SDS011;36745;48.544;8.918;2023-07-28T14:17:25;5.25;;;3.40;;
50773;SDS011;36745;48.544;8.918;2023-07-28T14:20:45;5.32;;;4.40;;
50773;SDS011;36745;48.544;8.918;2023-07-28T14:24:05;5.43;;;3.80;;
50773;SDS011;36745;48.544;8.918;2023-07-28T14:27:25;4.93;;;3.80;;
50773;SDS011;36745;48.544;8.918;2023-07-28T14:30:45;4.25;;;3.85;;
50773;SDS011;36745;48.544;8.918;2023-07-28T14:34:06;5.05;;;3.53;;
50773;SDS011;36745;48.544;8.918;2023-07-28T14:37:25;4.85;;;3.50;;
50773;SDS011;36745;48.544;8.918;2023-07-28T14:40:45;4.72;;;3.30;;
50773;SDS011;36745;48.544;8.918;2023-07-28T14:44:09;4.78;;;4.15;;
50773;SDS011;36745;48.544;8.918;2023-07-28T14:47:29;4.97;;;3.58;;
50773;SDS011;36745;48.544;8.918;2023-07-28T14:50:49;4.95;;;4.30;;
50773;SDS011;36745;48.544;8.918;2023-07-28T14:54:09;4.75;;;3.75;;
50773;SDS011;36745;48.544;8.918;2023-07-28T14:57:28;6.40;;;3.90;;
50773;SDS011;36745;48.544;8.918;2023-07-28T15:00:48;4.35;;;3.67;;
50773;SDS011;36745;48.544;8.918;2023-07-28T15:04:08;4.30;;;3.90;;
50773;SDS011;36745;48.544;8.918;2023-07-28T15:07:28;5.93;;;3.80;;
50773;SDS011;36745;48.544;8.918;2023-07-28T15:10:48;6.75;;;4.43;;
50773;SDS011;36745;48.544;8.918;2023-07-28T15:14:07;5.85;;;4.07;;
50773;SDS011;36745;48.544;8.918;2023-07-28T15:17:27;9.25;;;4.20;;
50773;SDS011;36745;48.544;8.918;2023-07-28T15:20:47;6.18;;;4.50;;
50773;SDS011;36745;48.544;8.918;2023-07-28T15:24:07;5.85;;;4.30;;
50773;SDS011;36745;48.544;8.918;2023-07-28T15:27:27;5.97;;;5.13;;
50773;SDS011;36745;48.544;8.918;2023-07-28T15:30:46;9.93;;;4.50;;
50773;SDS011;36745;48.544;8.918;2023-07-28T15:34:08;7.18;;;4.30;;
50773;SDS011;36745;48.544;8.918;2023-07-28T15:37:28;5.25;;;4.60;;
50773;SDS011;36745;48.544;8.918;2023-07-28T15:40:48;7.10;;;5.57;;
50773;SDS011;36745;48.544;8.918;2023-07-28T15:44:08;6.32;;;5.60;;
50773;SDS011;36745;48.544;8.918;2023-07-28T15:47:29;6.03;;;4.50;;
50773;SDS011;36745;48.544;8.918;2023-07-28T15:50:52;7.60;;;4.60;;
50773;SDS011;36745;48.544;8.918;2023-07-28T15:54:12;5.28;;;4.15;;
50773;SDS011;36745;48.544;8.918;2023-07-28T15:57:32;9.45;;;4.63;;
50773;SDS011;36745;48.544;8.918;2023-07-28T16:00:52;7.60;;;5.93;;
50773;SDS011;36745;48.544;8.918;2023-07-28T16:04:12;6.82;;;6.22;;
50773;SDS011;36745;48.544;8.918;2023-07-28T16:07:32;8.02;;;5.40;;
50773;SDS011;36745;48.544;8.918;2023-07-28T16:10:52;6.13;;;5.18;;
50773;SDS011;36745;48.544;8.918;2023-07-28T16:14:12;7.03;;;4.18;;
50773;SDS011;36745;48.544;8.918;2023-07-28T16:17:31;5.05;;;4.00;;
50773;SDS011;36745;48.544;8.918;2023-07-28T16:20:51;6.05;;;4.68;;
50773;SDS011;36745;48.544;8.918;2023-07-28T16:24:11;4.50;;;4.10;;
50773;SDS011;36745;48.544;8.918;2023-07-28T16:27:31;4.75;;;4.00;;
50773;SDS011;36745;48.544;8.918;2023-07-28T16:30:51;4.40;;;4.00;;
50773;SDS011;36745;48.544;8.918;2023-07-28T16:34:10;6.00;;;4.65;;
50773;SDS011;36745;48.544;8.918;2023-07-28T16:37:30;5.97;;;3.97;;
50773;SDS011;36745;48.544;8.918;2023-07-28T16:40:50;5.65;;;3.78;;
50773;SDS011;36745;48.544;8.918;2023-07-28T16:44:10;5.07;;;4.57;;
50773;SDS011;36745;48.544;8.918;2023-07-28T16:47:30;5.45;;;3.35;;
50773;SDS011;36745;48.544;8.918;2023-07-28T16:50:53;6.90;;;3.67;;
50773;SDS011;36745;48.544;8.918;2023-07-28T16:54:13;3.88;;;3.33;;
50773;SDS011;36745;48.544;8.918;2023-07-28T16:57:32;5.03;;;3.25;;
50773;SDS011;36745;48.544;8.918;2023-07-28T17:00:52;4.82;;;3.78;;
50773;SDS011;36745;48.544;8.918;2023-07-28T17:04:12;3.72;;;3.38;;
50773;SDS011;36745;48.544;8.918;2023-07-28T17:07:32;5.93;;;3.60;;
50773;SDS011;36745;48.544;8.918;2023-07-28T17:10:52;5.43;;;3.35;;
50773;SDS011;36745;48.544;8.918;2023-07-28T17:14:12;7.00;;;4.10;;
50773;SDS011;36745;48.544;8.918;2023-07-28T17:17:31;5.63;;;4.20;;
50773;SDS011;36745;48.544;8.918;2023-07-28T17:20:51;7.63;;;4.18;;
50773;SDS011;36745;48.544;8.918;2023-07-28T17:24:12;6.97;;;4.60;;
50773;SDS011;36745;48.544;8.918;2023-07-28T17:27:31;5.32;;;3.85;;
50773;SDS011;36745;48.544;8.918;2023-07-28T17:30:51;10.77;;;4.47;;
50773;SDS011;36745;48.544;8.918;2023-07-28T17:34:11;8.30;;;6.53;;
50773;SDS011;36745;48.544;8.918;2023-07-28T17:37:31;13.43;;;7.82;;
50773;SDS011;36745;48.544;8.918;2023-07-28T17:40:51;7.90;;;5.63;;
50773;SDS011;36745;48.544;8.918;2023-07-28T17:44:11;8.32;;;4.80;;
50773;SDS011;36745;48.544;8.918;2023-07-28T17:47:30;8.80;;;4.90;;
50773;SDS011;36745;48.544;8.918;2023-07-28T17:50:50;8.65;;;5.28;;
50773;SDS011;36745;48.544;8.918;2023-07-28T17:54:10;4.43;;;3.35;;
50773;SDS011;36745;48.544;8.918;2023-07-28T17:57:30;3.45;;;3.15;;
50773;SDS011;36745;48.544;8.918;2023-07-28T18:00:49;4.57;;;2.40;;
50773;SDS011;36745;48.544;8.918;2023-07-28T18:04:10;6.35;;;2.63;;
50773;SDS011;36745;48.544;8.918;2023-07-28T18:07:30;2.03;;;1.73;;
50773;SDS011;36745;48.544;8.918;2023-07-28T18:10:49;2.53;;;1.80;;
50773;SDS011;36745;48.544;8.918;2023-07-28T18:14:10;1.58;;;1.30;;
50773;SDS011;36745;48.544;8.918;2023-07-28T18:17:30;2.95;;;1.80;;
50773;SDS011;36745;48.544;8.918;2023-07-28T18:20:49;1.80;;;1.25;;
50773;SDS011;36745;48.544;8.918;2023-07-28T18:24:09;2.40;;;1.30;;
50773;SDS011;36745;48.544;8.918;2023-07-28T18:27:29;3.60;;;1.30;;
50773;SDS011;36745;48.544;8.918;2023-07-28T18:30:49;2.67;;;1.10;;
50773;SDS011;36745;48.544;8.918;2023-07-28T18:34:09;17.02;;;2.55;;
50773;SDS011;36745;48.544;8.918;2023-07-28T18:37:29;3.03;;;1.35;;
50773;SDS011;36745;48.544;8.918;2023-07-28T18:40:49;1.83;;;1.23;;
50773;SDS011;36745;48.544;8.918;2023-07-28T18:44:08;1.40;;;1.30;;
50773;SDS011;36745;48.544;8.918;2023-07-28T18:47:29;4.10;;;1.52;;
50773;SDS011;36745;48.544;8.918;2023-07-28T18:50:48;4.53;;;1.70;;
50773;SDS011;36745;48.544;8.918;2023-07-28T18:54:09;1.70;;;0.90;;
50773;SDS011;36745;48.544;8.918;2023-07-28T18:57:28;3.85;;;1.27;;
50773;SDS011;36745;48.544;8.918;2023-07-28T19:00:48;5.03;;;1.15;;
50773;SDS011;36745;48.544;8.918;2023-07-28T19:04:08;3.25;;;2.80;;
50773;SDS011;36745;48.544;8.918;2023-07-28T19:07:28;3.03;;;1.20;;
50773;SDS011;36745;48.544;8.918;2023-07-28T19:10:48;2.15;;;1.13;;
50773;SDS011;36745;48.544;8.918;2023-07-28T19:14:07;1.42;;;1.05;;
50773;SDS011;36745;48.544;8.918;2023-07-28T19:17:27;4.53;;;1.10;;
50773;SDS011;36745;48.544;8.918;2023-07-28T19:20:47;2.35;;;1.40;;
50773;SDS011;36745;48.544;8.918;2023-07-28T19:24:07;3.30;;;1.50;;
50773;SDS011;36745;48.544;8.918;2023-07-28T19:27:26;2.38;;;1.00;;
50773;SDS011;36745;48.544;8.918;2023-07-28T19:30:46;1.70;;;0.80;;
50773;SDS011;36745;48.544;8.918;2023-07-28T19:34:06;2.28;;;1.00;;
50773;SDS011;36745;48.544;8.918;2023-07-28T19:37:26;1.85;;;1.00;;
50773;SDS011;36745;48.544;8.918;2023-07-28T19:40:46;1.48;;;1.13;;
50773;SDS011;36745;48.544;8.918;2023-07-28T19:44:05;2.00;;;0.80;;
50773;SDS011;36745;48.544;8.918;2023-07-28T19:47:25;5.15;;;0.80;;
50773;SDS011;36745;48.544;8.918;2023-07-28T19:50:45;2.92;;;1.10;;
50773;SDS011;36745;48.544;8.918;2023-07-28T19:54:04;6.05;;;2.92;;
50773;SDS011;36745;48.544;8.918;2023-07-28T19:57:26;3.30;;;1.42;;
50773;SDS011;36745;48.544;8.918;2023-07-28T20:00:46;4.93;;;1.70;;
50773;SDS011;36745;48.544;8.918;2023-07-28T20:04:06;3.38;;;1.73;;
50773;SDS011;36745;48.544;8.918;2023-07-28T20:07:26;5.30;;;2.20;;
50773;SDS011;36745;48.544;8.918;2023-07-28T20:10:46;6.45;;;2.15;;